Terminal Aerodrome Forecast
Issued by NWS Cleveland, OH

Home | Current Version | Previous Version | Graphics & Text | Print | Product List | Glossary On
Versions: 1 2 3 4 5 6 7 8 9 10 11 12 13 14 15 16 17 18 19
000
FTUS41 KCLE 260814 AAA
TAFMFD
TAF AMD
KMFD 260814Z 2608/2706 25004KT P6SM SCT020
      TEMPO 2608/2610 BKN020
     FM261000 28004KT 6SM BR SCT008 BKN015
      TEMPO 2610/2613 4SM BR BKN008
     FM261500 30005KT P6SM BKN250
     FM270000 34005KT P6SM SKC=

USA.gov is the U.S. government's official web portal to all federal, state and local government web resources and services.